CheckWX is a tool to help pilots better visualize weather data.  It is not intended as a substitute for an official pre-flight weather briefing.

05:13:25 UTC

EGNM TAF
Leeds Bradford Airport
Leeds, United Kingdom
TAF EGNM 030501Z 0306/0406 28010KT 9999 SCT020 PROB30 TEMPO 0306/0310 BKN012 PROB30 TEMPO 0312/0324 8000 -SHRA BECMG 0321/0324 20006KT

Apr-3@
06:00 UTC

Apr-3 @ 06:00 UTC

Apr-3@
21:00 UTC

Apr-3 @ 21:00 UTC

TAF EGNM 030501Z 0306/0406 28010KT 9999 SCT020

Expired

Wind
  • 280° at 10 KTS
Cloud Levels
  • Scattered at 2,000' AGL

Apr-3@
06:00 UTC

Apr-3 @ 06:00 UTC

Apr-3@
10:00 UTC

Apr-3 @ 10:00 UTC

PROB30 TEMPO 0306/0310 BKN012

Expired

Cloud Levels
  • Broken at 1,200' AGL

Apr-3@
12:00 UTC

Apr-3 @ 12:00 UTC

Apr-4@
00:00 UTC

Apr-4 @ 00:00 UTC

PROB30 TEMPO 0312/0324 8000 -SHRA

Expired

Conditions
Light Showers, Rain
Cloud Levels

Apr-3@
21:00 UTC

Apr-3 @ 21:00 UTC

Apr-4@
06:00 UTC

Apr-4 @ 06:00 UTC

BECMG 0321/0324 20006KT

Becoming

Becoming Conditions expected by Sat, Apr 4, 2020 @ 00:00 UTC

Wind
  • 200° at 6 KTS
Cloud Levels
  • Scattered at 2,000' AGL